createdAt,value
2022-11-28T00:01:24.691Z,6.04
2022-11-28T00:03:51.985Z,6.02
2022-11-28T00:06:19.277Z,6.03
2022-11-28T00:08:46.495Z,6.06
2022-11-28T00:11:15.957Z,6.07
2022-11-28T00:13:43.115Z,6.09
2022-11-28T00:16:15.420Z,6.10
2022-11-28T00:18:42.493Z,6.12
2022-11-28T00:21:12.297Z,6.15
2022-11-28T00:23:39.974Z,6.15
2022-11-28T00:26:11.874Z,6.16
2022-11-28T00:28:38.942Z,6.17
2022-11-28T00:31:06.116Z,6.16
2022-11-28T00:33:33.558Z,6.19
2022-11-28T00:36:02.921Z,6.19
2022-11-28T00:38:30.246Z,6.21
2022-11-28T00:41:09.863Z,6.20
2022-11-28T00:43:37.437Z,6.23
2022-11-28T00:46:04.523Z,6.23
2022-11-28T00:48:33.003Z,6.23
2022-11-28T00:51:11.215Z,6.23
2022-11-28T00:53:40.664Z,6.24
2022-11-28T00:56:08.290Z,6.24
2022-11-28T00:58:36.020Z,6.25
2022-11-28T01:01:18.249Z,6.26
2022-11-28T01:03:48.070Z,6.26
2022-11-28T01:06:22.600Z,6.26
2022-11-28T01:08:49.788Z,6.28
2022-11-28T01:11:16.757Z,6.29
2022-11-28T01:13:43.560Z,6.28
2022-11-28T01:16:10.954Z,6.28
2022-11-28T01:18:38.673Z,6.31
2022-11-28T01:21:07.727Z,6.32
2022-11-28T01:23:35.301Z,6.36
2022-11-28T01:26:03.737Z,6.35
2022-11-28T01:28:30.575Z,6.35
2022-11-28T01:30:57.376Z,6.37
2022-11-28T01:33:24.201Z,6.39
2022-11-28T01:35:55.948Z,6.39
2022-11-28T01:38:23.273Z,6.42
2022-11-28T01:40:50.836Z,6.46
2022-11-28T01:43:18.341Z,6.47
2022-11-28T01:45:45.696Z,6.48
2022-11-28T01:48:18.399Z,6.52
2022-11-28T01:50:50.108Z,6.53
2022-11-28T01:53:17.832Z,6.56
2022-11-28T01:55:54.652Z,6.58
2022-11-28T01:58:21.971Z,6.59
2022-11-28T02:00:49.249Z,6.60
2022-11-28T02:03:42.297Z,6.65
2022-11-28T02:06:10.498Z,6.68
2022-11-28T02:08:37.666Z,6.69
2022-11-28T02:11:29.789Z,6.71
2022-11-28T02:14:14.726Z,6.74
2022-11-28T02:16:59.487Z,6.74
2022-11-28T02:20:04.466Z,6.76
2022-11-28T02:22:36.485Z,6.76
2022-11-28T02:25:44.536Z,6.79
2022-11-28T02:28:17.397Z,6.79
2022-11-28T02:31:07.872Z,6.82
2022-11-28T02:33:43.696Z,6.81
2022-11-28T02:36:28.790Z,6.83
2022-11-28T02:39:27.760Z,6.84
2022-11-28T02:42:09.487Z,6.85
2022-11-28T02:45:15.739Z,6.84
2022-11-28T02:47:54.808Z,6.86
2022-11-28T02:50:53.283Z,6.86
2022-11-28T02:53:23.808Z,6.86
2022-11-28T02:55:52.606Z,6.86
2022-11-28T02:58:19.390Z,6.88
2022-11-28T03:00:50.663Z,6.88
2022-11-28T03:03:38.006Z,6.87
2022-11-28T03:06:21.533Z,6.88
2022-11-28T03:09:26.356Z,6.88
2022-11-28T03:12:02.243Z,6.89
2022-11-28T03:14:41.971Z,6.90
2022-11-28T03:17:18.159Z,6.89
2022-11-28T03:20:17.216Z,6.89
2022-11-28T03:22:55.895Z,6.89
2022-11-28T03:25:40.582Z,6.89
2022-11-28T03:28:49.736Z,6.90
2022-11-28T03:31:22.315Z,6.90
2022-11-28T03:33:54.794Z,6.90
2022-11-28T03:36:29.549Z,6.89
2022-11-28T03:39:11.269Z,6.90
2022-11-28T03:41:46.800Z,6.90
2022-11-28T03:44:27.485Z,6.90
2022-11-28T03:46:57.077Z,6.89
2022-11-28T03:49:33.044Z,6.88
2022-11-28T03:52:04.322Z,6.88
2022-11-28T03:54:40.665Z,6.88
2022-11-28T03:57:19.389Z,6.89
2022-11-28T03:59:54.448Z,6.88
2022-11-28T04:02:27.123Z,6.87
2022-11-28T04:05:12.077Z,6.88
2022-11-28T04:08:29.011Z,6.89
2022-11-28T04:11:12.900Z,6.89
2022-11-28T04:13:45.688Z,6.88
2022-11-28T04:16:37.326Z,6.90
2022-11-28T04:19:12.897Z,6.90
2022-11-28T04:21:44.509Z,6.89
2022-11-28T04:24:17.317Z,6.88
2022-11-28T04:26:48.957Z,6.88
2022-11-28T04:29:20.790Z,6.86
2022-11-28T04:31:50.913Z,6.88
2022-11-28T04:34:20.404Z,6.89
2022-11-28T04:36:49.990Z,6.88
2022-11-28T04:39:21.319Z,6.87
2022-11-28T04:42:05.614Z,6.87
2022-11-28T04:44:47.567Z,6.87
2022-11-28T04:47:14.696Z,6.86
2022-11-28T04:49:41.811Z,6.89
2022-11-28T04:52:57.329Z,6.89
2022-11-28T04:55:30.123Z,6.89
2022-11-28T04:58:13.397Z,6.88
2022-11-28T05:00:41.251Z,6.88
2022-11-28T05:03:09.815Z,6.88
2022-11-28T05:05:51.073Z,6.89
2022-11-28T05:08:20.322Z,6.89
2022-11-28T05:10:47.804Z,6.88
2022-11-28T05:13:15.124Z,6.86
2022-11-28T05:15:42.043Z,6.88
2022-11-28T05:18:09.478Z,6.86
2022-11-28T05:20:38.291Z,6.87
2022-11-28T05:23:05.328Z,6.88
2022-11-28T05:25:32.273Z,6.87
2022-11-28T05:27:59.069Z,6.88
2022-11-28T05:30:25.912Z,6.89
2022-11-28T05:32:52.783Z,6.89
2022-11-28T05:35:19.627Z,6.87
2022-11-28T05:37:46.456Z,6.88
2022-11-28T05:40:13.381Z,6.88
2022-11-28T05:42:40.169Z,6.87
2022-11-28T05:45:07.587Z,6.88
2022-11-28T05:47:34.614Z,6.88
2022-11-28T05:50:01.405Z,6.87
2022-11-28T05:52:32.548Z,6.87
2022-11-28T05:55:00.431Z,6.87
2022-11-28T05:57:30.071Z,6.87
2022-11-28T05:59:57.539Z,6.86
2022-11-28T06:02:25.393Z,6.89
2022-11-28T06:04:52.275Z,6.89
2022-11-28T06:07:20.070Z,6.90
2022-11-28T06:09:47.202Z,6.91
2022-11-28T06:12:14.016Z,6.91
2022-11-28T06:14:40.837Z,6.90
2022-11-28T06:17:07.740Z,6.90
2022-11-28T06:19:34.640Z,6.91
2022-11-28T06:22:01.457Z,6.92
2022-11-28T06:24:28.409Z,6.94
2022-11-28T06:26:55.437Z,6.93
2022-11-28T06:29:22.571Z,6.92
2022-11-28T06:31:49.283Z,6.92
2022-11-28T06:34:16.581Z,6.93
2022-11-28T06:36:45.353Z,6.93
2022-11-28T06:39:15.409Z,6.94
2022-11-28T06:41:43.115Z,6.96
2022-11-28T06:44:15.201Z,6.95
2022-11-28T06:46:43.049Z,6.96
2022-11-28T06:49:13.690Z,6.97
2022-11-28T06:51:41.734Z,6.96
2022-11-28T06:54:09.470Z,6.97
2022-11-28T06:56:36.496Z,6.97
2022-11-28T06:59:03.313Z,6.96
2022-11-28T07:01:31.524Z,6.98
2022-11-28T07:03:58.477Z,6.98
2022-11-28T07:06:26.886Z,6.99
2022-11-28T07:08:53.925Z,7.00
2022-11-28T07:11:27.772Z,6.99
2022-11-28T07:13:55.719Z,7.03
2022-11-28T07:16:25.096Z,7.03
2022-11-28T07:18:53.051Z,7.02
2022-11-28T07:21:20.458Z,7.02
2022-11-28T07:23:47.963Z,7.01
2022-11-28T07:26:16.998Z,7.02
2022-11-28T07:28:45.205Z,7.03
2022-11-28T07:31:14.777Z,7.02
2022-11-28T07:33:44.023Z,7.02
2022-11-28T07:36:16.946Z,7.03
2022-11-28T07:38:47.719Z,7.04
2022-11-28T07:41:15.328Z,7.05
2022-11-28T07:43:43.535Z,7.05
2022-11-28T07:46:13.641Z,7.04
2022-11-28T07:48:40.499Z,7.06
2022-11-28T07:51:09.477Z,7.07
2022-11-28T07:53:36.988Z,7.07
2022-11-28T07:56:08.894Z,7.07
2022-11-28T07:58:36.446Z,7.09
2022-11-28T08:01:11.349Z,7.08
2022-11-28T08:03:38.527Z,7.10
2022-11-28T08:06:05.898Z,7.10
2022-11-28T08:08:33.020Z,7.11
2022-11-28T08:11:03.077Z,7.14
2022-11-28T08:13:30.173Z,7.15
2022-11-28T08:15:57.288Z,7.16
2022-11-28T08:18:24.125Z,7.16
2022-11-28T08:20:54.203Z,7.17
2022-11-28T08:23:21.175Z,7.19
2022-11-28T08:25:47.958Z,7.22
2022-11-28T08:28:14.753Z,7.24
2022-11-28T08:30:44.096Z,7.25
2022-11-28T08:33:11.427Z,7.27
2022-11-28T08:35:40.445Z,7.28
2022-11-28T08:38:07.292Z,7.28
2022-11-28T08:40:34.118Z,7.29
2022-11-28T08:43:01.048Z,7.31
2022-11-28T08:45:27.805Z,7.34
2022-11-28T08:47:54.667Z,7.33
2022-11-28T08:50:21.544Z,7.35
2022-11-28T08:52:48.553Z,7.37
2022-11-28T08:55:15.522Z,7.40
2022-11-28T08:57:42.279Z,7.43
2022-11-28T09:00:10.198Z,7.42
2022-11-28T09:02:37.037Z,7.44
2022-11-28T09:05:04.137Z,7.46
2022-11-28T09:07:31.209Z,7.48
2022-11-28T09:09:58.157Z,7.47
2022-11-28T09:12:25.152Z,7.50
2022-11-28T09:14:52.103Z,7.53
2022-11-28T09:17:19.051Z,7.55
2022-11-28T09:19:46.052Z,7.58
2022-11-28T09:22:12.960Z,7.60
2022-11-28T09:24:40.286Z,7.62
2022-11-28T09:27:07.182Z,7.64
2022-11-28T09:29:34.097Z,7.67
2022-11-28T09:32:00.934Z,7.67
2022-11-28T09:34:28.041Z,7.68
2022-11-28T09:36:54.896Z,7.70
2022-11-28T09:39:21.705Z,7.74
2022-11-28T09:42:08.692Z,7.76
2022-11-28T09:44:43.529Z,7.79
2022-11-28T09:47:35.134Z,7.84
2022-11-28T09:50:10.760Z,7.86
2022-11-28T09:52:49.452Z,7.88
2022-11-28T09:55:24.976Z,7.89
2022-11-28T09:57:53.561Z,7.92
2022-11-28T10:00:35.126Z,7.96
2022-11-28T10:03:35.257Z,7.99
2022-11-28T10:06:16.187Z,7.99
2022-11-28T10:09:04.842Z,8.00
2022-11-28T10:11:55.881Z,8.00
2022-11-28T10:14:31.782Z,8.03
2022-11-28T10:17:34.535Z,8.05
2022-11-28T10:20:23.259Z,8.03
2022-11-28T10:22:59.436Z,8.05
2022-11-28T10:25:34.277Z,8.08
2022-11-28T10:28:04.091Z,8.11
2022-11-28T10:30:37.748Z,8.13
2022-11-28T10:33:17.152Z,8.16
2022-11-28T10:35:51.397Z,8.18
2022-11-28T10:38:21.124Z,8.17
2022-11-28T10:41:11.093Z,8.23
2022-11-28T10:44:05.406Z,8.22
2022-11-28T10:46:45.889Z,8.24
2022-11-28T10:49:24.918Z,8.28
2022-11-28T10:51:58.236Z,8.28
2022-11-28T10:54:34.101Z,8.31
2022-11-28T10:57:15.701Z,8.34
2022-11-28T11:00:09.893Z,8.34
2022-11-28T11:02:38.778Z,8.32
2022-11-28T11:05:06.872Z,8.34
2022-11-28T11:07:34.691Z,8.38
2022-11-28T11:10:23.743Z,8.43
2022-11-28T11:12:55.294Z,8.45
2022-11-28T11:15:32.492Z,8.46
2022-11-28T11:18:05.651Z,8.49
2022-11-28T11:20:36.149Z,8.51
2022-11-28T11:23:15.686Z,8.57
2022-11-28T11:25:51.457Z,8.60
2022-11-28T11:28:44.329Z,8.59
2022-11-28T11:31:44.864Z,8.60
2022-11-28T11:34:18.235Z,8.59
2022-11-28T11:36:45.508Z,8.58
2022-11-28T11:39:12.665Z,8.56
2022-11-28T11:41:44.956Z,8.58
2022-11-28T11:44:14.771Z,8.57
2022-11-28T11:46:51.522Z,8.59
2022-11-28T11:49:33.879Z,8.59
2022-11-28T11:52:04.458Z,8.58
2022-11-28T11:54:31.802Z,8.59
2022-11-28T11:57:24.982Z,8.59
2022-11-28T11:59:52.821Z,8.63
2022-11-28T12:02:49.607Z,8.65
2022-11-28T12:05:18.487Z,8.65
2022-11-28T12:07:51.321Z,8.70
2022-11-28T12:10:22.500Z,8.73
2022-11-28T12:12:49.395Z,8.75
2022-11-28T12:15:25.712Z,8.79
2022-11-28T12:17:59.161Z,8.79
2022-11-28T12:20:41.236Z,8.83
2022-11-28T12:23:32.708Z,8.87
2022-11-28T12:26:10.279Z,8.86
2022-11-28T12:29:01.417Z,8.86
2022-11-28T12:31:48.526Z,8.89
2022-11-28T12:34:34.544Z,8.89
2022-11-28T12:37:13.452Z,8.93
2022-11-28T12:39:46.495Z,8.91
2022-11-28T12:42:13.610Z,8.91
2022-11-28T12:45:16.199Z,8.92
2022-11-28T12:48:03.574Z,8.93
2022-11-28T12:50:35.869Z,8.92
2022-11-28T12:56:17.446Z,8.95
2022-11-28T12:58:54.513Z,8.97
2022-11-28T13:01:48.512Z,8.98
2022-11-28T13:08:08.451Z,8.98
2022-11-28T13:13:52.906Z,8.99
2022-11-28T13:16:31.949Z,8.98
2022-11-28T13:19:11.556Z,9.00
2022-11-28T13:22:04.395Z,9.01
2022-11-28T13:25:02.644Z,9.00
2022-11-28T13:27:41.580Z,9.00
2022-11-28T13:30:22.621Z,9.04
2022-11-28T13:33:10.999Z,9.04
2022-11-28T13:35:41.950Z,9.06
2022-11-28T13:38:39.273Z,9.06
2022-11-28T13:46:51.592Z,9.06
2022-11-28T13:49:30.603Z,9.05
2022-11-28T13:52:19.232Z,9.04
2022-11-28T13:54:54.006Z,9.03
2022-11-28T13:57:39.910Z,9.04
2022-11-28T14:00:27.930Z,9.03
2022-11-28T14:03:00.089Z,9.04
2022-11-28T14:05:37.275Z,9.03
2022-11-28T14:08:05.942Z,9.01
2022-11-28T14:11:01.999Z,9.03
2022-11-28T14:14:01.237Z,9.02
2022-11-28T14:16:54.169Z,9.02
2022-11-28T14:19:39.280Z,9.03
2022-11-28T14:22:06.054Z,9.01
2022-11-28T14:24:45.180Z,9.02
2022-11-28T14:27:20.120Z,9.02
2022-11-28T14:29:51.219Z,9.03
2022-11-28T14:32:41.069Z,9.04
2022-11-28T14:35:50.947Z,9.03
2022-11-28T14:38:35.740Z,9.03
2022-11-28T14:41:06.475Z,9.02
2022-11-28T14:43:37.892Z,9.02
2022-11-28T14:46:26.183Z,9.04
2022-11-28T14:48:59.350Z,9.04
2022-11-28T14:51:44.501Z,9.03
2022-11-28T14:54:42.291Z,9.02
2022-11-28T14:57:20.655Z,9.02
2022-11-28T14:59:48.579Z,9.01
2022-11-28T15:02:36.700Z,9.02
2022-11-28T15:05:23.065Z,9.01
2022-11-28T15:08:16.185Z,8.99
2022-11-28T15:11:01.295Z,8.96
2022-11-28T15:13:49.906Z,8.97
2022-11-28T15:16:20.133Z,8.93
2022-11-28T15:18:54.086Z,8.94
2022-11-28T15:21:22.783Z,8.92
2022-11-28T15:23:50.310Z,8.93
2022-11-28T15:26:21.855Z,8.92
2022-11-28T15:28:48.838Z,8.94
2022-11-28T15:31:25.180Z,8.94
2022-11-28T15:33:52.089Z,8.95
2022-11-28T15:36:28.205Z,8.94
2022-11-28T15:38:56.401Z,8.93
2022-11-28T15:41:25.538Z,8.93
2022-11-28T15:43:54.500Z,8.94
2022-11-28T15:46:31.782Z,8.91
2022-11-28T15:48:58.887Z,8.89
2022-11-28T15:51:34.260Z,8.89
2022-11-28T15:54:05.406Z,8.87
2022-11-28T15:56:34.911Z,8.88
2022-11-28T15:59:02.001Z,8.88
2022-11-28T16:01:31.071Z,8.88
2022-11-28T16:04:13.651Z,8.86
2022-11-28T16:06:43.190Z,8.86
2022-11-28T16:09:35.155Z,8.85
2022-11-28T16:12:04.707Z,8.85
2022-11-28T16:14:34.855Z,8.82
2022-11-28T16:17:07.504Z,8.77
2022-11-28T16:19:38.101Z,8.73
2022-11-28T16:22:09.125Z,8.70
2022-11-28T16:24:48.553Z,8.69
2022-11-28T16:27:34.928Z,8.69
2022-11-28T16:30:23.426Z,8.67
2022-11-28T16:32:52.120Z,8.67
2022-11-28T16:35:41.793Z,8.66
2022-11-28T16:38:16.697Z,8.67
2022-11-28T16:40:44.078Z,8.66
2022-11-28T16:43:32.720Z,8.65
2022-11-28T16:46:02.753Z,8.66
2022-11-28T16:48:34.311Z,8.66
2022-11-28T16:51:13.399Z,8.68
2022-11-28T16:53:44.812Z,8.67
2022-11-28T16:56:29.790Z,8.66
2022-11-28T16:59:16.810Z,8.65
2022-11-28T17:01:49.556Z,8.64
2022-11-28T17:04:22.588Z,8.66
2022-11-28T17:06:50.435Z,8.64
2022-11-28T17:09:18.240Z,8.64
2022-11-28T17:12:08.715Z,8.64
2022-11-28T17:14:37.678Z,8.63
2022-11-28T17:17:12.215Z,8.63
2022-11-28T17:19:39.263Z,8.62
2022-11-28T17:22:07.716Z,8.60
2022-11-28T17:24:36.097Z,8.59
2022-11-28T17:27:04.014Z,8.57
2022-11-28T17:29:30.877Z,8.53
2022-11-28T17:31:59.071Z,8.48
2022-11-28T17:34:28.469Z,8.42
2022-11-28T17:36:55.368Z,8.37
2022-11-28T17:39:22.244Z,8.33
2022-11-28T17:41:51.885Z,8.27
2022-11-28T17:44:21.517Z,8.22
2022-11-28T17:46:50.535Z,8.16
2022-11-28T17:49:17.876Z,8.12
2022-11-28T17:51:44.832Z,8.09
2022-11-28T17:54:16.457Z,8.06
2022-11-28T17:56:44.612Z,8.02
2022-11-28T17:59:16.299Z,7.99
2022-11-28T18:01:44.242Z,7.98
2022-11-28T18:04:11.754Z,7.93
2022-11-28T18:06:39.033Z,7.89
2022-11-28T18:09:11.671Z,7.83
2022-11-28T18:11:39.446Z,7.76
2022-11-28T18:14:06.653Z,7.74
2022-11-28T18:16:35.741Z,7.70
2022-11-28T18:19:03.975Z,7.68
2022-11-28T18:21:31.199Z,7.65
2022-11-28T18:23:57.980Z,7.64
2022-11-28T18:26:26.338Z,7.60
2022-11-28T18:28:54.319Z,7.55
2022-11-28T18:31:23.564Z,7.50
2022-11-28T18:33:50.942Z,7.47
2022-11-28T18:36:23.587Z,7.44
2022-11-28T18:38:54.571Z,7.40
2022-11-28T18:41:21.514Z,7.36
2022-11-28T18:43:48.461Z,7.32
2022-11-28T18:46:21.112Z,7.29
2022-11-28T18:48:48.283Z,7.27
2022-11-28T18:51:17.945Z,7.24
2022-11-28T18:53:46.247Z,7.21
2022-11-28T18:56:14.264Z,7.23
2022-11-28T18:58:43.652Z,7.22
2022-11-28T19:01:16.761Z,7.17
2022-11-28T19:03:48.279Z,7.14
2022-11-28T19:06:15.505Z,7.09
2022-11-28T19:08:42.972Z,7.06
2022-11-28T19:11:13.472Z,7.05
2022-11-28T19:13:41.920Z,7.04
2022-11-28T19:16:18.387Z,7.02
2022-11-28T19:18:45.690Z,7.05
2022-11-28T19:21:15.337Z,7.04
2022-11-28T19:23:42.359Z,7.07
2022-11-28T19:26:12.282Z,7.11
2022-11-28T19:28:40.725Z,7.12
2022-11-28T19:31:12.933Z,7.15
2022-11-28T19:33:39.799Z,7.17
2022-11-28T19:36:08.653Z,7.17
2022-11-28T19:38:36.573Z,7.18
2022-11-28T19:41:15.112Z,7.18
2022-11-28T19:43:41.893Z,7.20
2022-11-28T19:46:09.684Z,7.20
2022-11-28T19:48:38.128Z,7.24
2022-11-28T19:51:06.050Z,7.27
2022-11-28T19:53:34.201Z,7.30
2022-11-28T19:56:06.226Z,7.33
2022-11-28T19:58:35.418Z,7.35
2022-11-28T20:01:16.751Z,7.37
2022-11-28T20:03:44.311Z,7.40
2022-11-28T20:06:14.524Z,7.42
2022-11-28T20:08:41.898Z,7.45
2022-11-28T20:11:11.334Z,7.47
2022-11-28T20:13:38.200Z,7.48
2022-11-28T20:16:07.407Z,7.50
2022-11-28T20:18:37.182Z,7.51
2022-11-28T20:21:08.497Z,7.52
2022-11-28T20:23:44.438Z,7.54
2022-11-28T20:26:13.241Z,7.56
2022-11-28T20:28:41.804Z,7.55
2022-11-28T20:31:27.443Z,7.57
2022-11-28T20:33:54.746Z,7.58
2022-11-28T20:36:23.502Z,7.56
2022-11-28T20:38:51.651Z,7.55
2022-11-28T20:41:20.421Z,7.54
2022-11-28T20:43:47.968Z,7.53
2022-11-28T20:46:16.367Z,7.54
2022-11-28T20:48:44.022Z,7.56
2022-11-28T20:51:13.732Z,7.56
2022-11-28T20:53:41.624Z,7.56
2022-11-28T20:56:12.411Z,7.55
2022-11-28T20:58:39.689Z,7.55
2022-11-28T21:01:07.042Z,7.57
2022-11-28T21:03:34.495Z,7.57
2022-11-28T21:06:01.775Z,7.57
2022-11-28T21:08:31.489Z,7.53
2022-11-28T21:10:58.209Z,7.52
2022-11-28T21:13:25.377Z,7.51
2022-11-28T21:15:53.603Z,7.49
2022-11-28T21:18:20.547Z,7.50
2022-11-28T21:20:47.413Z,7.49
2022-11-28T21:23:17.353Z,7.50
2022-11-28T21:25:45.830Z,7.50
2022-11-28T21:28:12.935Z,7.52
2022-11-28T21:30:42.717Z,7.55
2022-11-28T21:33:11.561Z,7.54
2022-11-28T21:35:39.411Z,7.55
2022-11-28T21:38:07.394Z,7.57
2022-11-28T21:40:34.288Z,7.58
2022-11-28T21:43:01.076Z,7.59
2022-11-28T21:45:27.948Z,7.57
2022-11-28T21:47:54.917Z,7.59
2022-11-28T21:50:21.665Z,7.59
2022-11-28T21:52:48.541Z,7.60
2022-11-28T21:55:15.506Z,7.63
2022-11-28T21:57:42.438Z,7.63
2022-11-28T22:00:25.654Z,7.63
2022-11-28T22:03:02.954Z,7.60
2022-11-28T22:05:32.988Z,7.62
2022-11-28T22:08:00.346Z,7.63
2022-11-28T22:10:27.472Z,7.59
2022-11-28T22:12:54.169Z,7.59
2022-11-28T22:15:21.066Z,7.59
2022-11-28T22:17:47.922Z,7.62
2022-11-28T22:20:14.741Z,7.63
2022-11-28T22:22:41.598Z,7.64
2022-11-28T22:25:08.530Z,7.64
2022-11-28T22:27:38.248Z,7.62
2022-11-28T22:30:07.483Z,7.64
2022-11-28T22:32:34.267Z,7.64
2022-11-28T22:35:02.813Z,7.64
2022-11-28T22:37:29.684Z,7.64
2022-11-28T22:39:56.462Z,7.64
2022-11-28T22:42:23.295Z,7.65
2022-11-28T22:44:50.131Z,7.65
2022-11-28T22:47:17.035Z,7.71
2022-11-28T22:49:43.931Z,7.70
2022-11-28T22:52:10.773Z,7.70
2022-11-28T22:54:37.574Z,7.69
2022-11-28T22:57:04.545Z,7.71
2022-11-28T22:59:33.879Z,7.71
2022-11-28T23:02:01.471Z,7.75
2022-11-28T23:04:28.398Z,7.75
2022-11-28T23:06:55.352Z,7.73
2022-11-28T23:09:22.455Z,7.72
2022-11-28T23:11:49.331Z,7.72
2022-11-28T23:14:16.109Z,7.75
2022-11-28T23:16:44.507Z,7.75
2022-11-28T23:19:15.671Z,7.76
2022-11-28T23:21:45.925Z,7.73
2022-11-28T23:24:18.896Z,7.75
2022-11-28T23:26:46.520Z,7.75
2022-11-28T23:29:14.220Z,7.74
2022-11-28T23:31:42.627Z,7.71
2022-11-28T23:34:10.676Z,7.73
2022-11-28T23:36:47.790Z,7.74
2022-11-28T23:39:20.223Z,7.76
2022-11-28T23:41:47.667Z,7.76
2022-11-28T23:44:16.008Z,7.76
2022-11-28T23:46:43.290Z,7.75
2022-11-28T23:49:10.969Z,7.74
2022-11-28T23:51:40.219Z,7.75
2022-11-28T23:54:08.077Z,7.74
2022-11-28T23:56:36.350Z,7.77
2022-11-28T23:59:06.543Z,7.78
